createdAt,value
2023-05-19T00:00:48.543Z,11.72
2023-05-19T00:03:54.584Z,11.68
2023-05-19T00:06:59.840Z,11.80
2023-05-19T00:10:02.606Z,11.83
2023-05-19T00:13:05.285Z,11.84
2023-05-19T00:16:08.314Z,11.89
2023-05-19T00:19:12.778Z,11.80
2023-05-19T00:22:15.620Z,11.81
2023-05-19T00:25:18.321Z,11.65
2023-05-19T00:28:20.639Z,11.60
2023-05-19T00:31:23.359Z,11.61
2023-05-19T00:34:26.036Z,11.55
2023-05-19T00:37:28.644Z,11.54
2023-05-19T00:40:32.354Z,11.58
2023-05-19T00:43:35.420Z,11.57
2023-05-19T00:46:38.346Z,11.57
2023-05-19T00:49:41.360Z,11.48
2023-05-19T00:52:44.068Z,11.45
2023-05-19T00:55:48.301Z,11.42
2023-05-19T00:58:55.214Z,11.48
2023-05-19T01:01:58.663Z,11.43
2023-05-19T01:05:02.400Z,11.32
2023-05-19T01:08:06.196Z,11.21
2023-05-19T01:11:08.721Z,11.19
2023-05-19T01:14:11.457Z,11.22
2023-05-19T01:17:29.774Z,11.25
2023-05-19T01:20:39.371Z,11.29
2023-05-19T01:23:57.227Z,11.31
2023-05-19T01:27:19.247Z,11.45
2023-05-19T01:30:32.671Z,11.39
2023-05-19T01:33:36.469Z,11.36
2023-05-19T01:36:41.405Z,11.38
2023-05-19T01:39:45.292Z,11.48
2023-05-19T01:42:49.594Z,11.37
2023-05-19T01:45:52.891Z,11.39
2023-05-19T01:48:57.501Z,11.32
2023-05-19T01:52:00.332Z,11.32
2023-05-19T01:55:02.956Z,11.27
2023-05-19T01:58:20.805Z,11.33
2023-05-19T02:01:36.044Z,11.41
2023-05-19T02:04:45.255Z,11.39
2023-05-19T02:07:58.274Z,11.31
2023-05-19T02:11:09.362Z,11.34
2023-05-19T02:14:21.534Z,11.35
2023-05-19T02:17:27.679Z,11.30
2023-05-19T02:20:31.588Z,11.33
2023-05-19T02:23:34.470Z,11.34
2023-05-19T02:26:36.814Z,11.38
2023-05-19T02:29:39.912Z,11.51
2023-05-19T02:32:42.619Z,11.43
2023-05-19T02:35:45.220Z,11.48
2023-05-19T02:38:47.600Z,11.38
2023-05-19T02:41:51.041Z,11.47
2023-05-19T02:44:55.103Z,11.43
2023-05-19T02:47:57.701Z,11.40
2023-05-19T02:51:01.313Z,11.48
2023-05-19T02:54:04.289Z,11.50
2023-05-19T02:57:07.305Z,11.47
2023-05-19T03:00:10.399Z,11.47
2023-05-19T03:03:14.057Z,11.36
2023-05-19T03:06:18.443Z,11.51
2023-05-19T03:09:21.116Z,11.39
2023-05-19T03:12:23.695Z,11.31
2023-05-19T03:15:26.062Z,11.30
2023-05-19T03:18:28.520Z,11.35
2023-05-19T03:21:32.255Z,11.34
2023-05-19T03:24:34.871Z,11.43
2023-05-19T03:27:38.447Z,11.42
2023-05-19T03:30:41.762Z,11.36
2023-05-19T03:33:49.130Z,11.42
2023-05-19T03:36:51.443Z,11.41
2023-05-19T03:39:54.083Z,11.35
2023-05-19T03:42:56.899Z,11.40
2023-05-19T03:45:59.724Z,11.38
2023-05-19T03:49:20.815Z,11.49
2023-05-19T03:52:45.746Z,11.57
2023-05-19T03:56:00.785Z,11.62
2023-05-19T03:59:06.453Z,11.70
2023-05-19T04:02:08.892Z,11.86
2023-05-19T04:05:11.662Z,11.89
2023-05-19T04:08:13.978Z,12.06
2023-05-19T04:11:16.856Z,12.02
2023-05-19T04:14:20.275Z,12.01
2023-05-19T04:17:26.358Z,12.11
2023-05-19T04:20:30.228Z,12.32
2023-05-19T04:23:33.576Z,12.39
2023-05-19T04:26:40.365Z,12.41
2023-05-19T04:29:42.912Z,12.41
2023-05-19T04:32:46.016Z,12.51
2023-05-19T04:35:50.941Z,12.61
2023-05-19T04:39:02.704Z,12.59
2023-05-19T04:42:06.799Z,12.87
2023-05-19T04:45:10.553Z,13.00
2023-05-19T04:48:17.093Z,13.22
2023-05-19T04:51:21.285Z,13.32
2023-05-19T04:54:24.353Z,13.38
2023-05-19T04:57:27.444Z,13.54
2023-05-19T05:00:29.916Z,13.51
2023-05-19T05:03:38.930Z,13.82
2023-05-19T05:06:42.483Z,14.05
2023-05-19T05:09:46.022Z,14.16
2023-05-19T05:12:48.922Z,14.52
2023-05-19T05:15:52.778Z,14.74
2023-05-19T05:18:56.157Z,14.87
2023-05-19T05:22:00.959Z,15.18
2023-05-19T05:25:04.162Z,15.50
2023-05-19T05:28:06.792Z,15.62
2023-05-19T05:31:12.280Z,15.87
2023-05-19T05:34:15.528Z,16.13
2023-05-19T05:37:18.826Z,16.24
2023-05-19T05:40:21.892Z,16.30
2023-05-19T05:43:24.834Z,16.27
2023-05-19T05:46:33.133Z,16.22
2023-05-19T05:49:38.455Z,16.35
2023-05-19T05:52:42.285Z,16.47
2023-05-19T05:55:46.948Z,17.18
2023-05-19T05:58:50.875Z,18.54
2023-05-19T06:01:53.783Z,18.95
2023-05-19T06:04:56.919Z,20.17
2023-05-19T06:07:59.985Z,20.59
2023-05-19T06:11:09.364Z,21.55
2023-05-19T06:14:14.826Z,21.81
2023-05-19T06:17:47.990Z,21.34
2023-05-19T06:20:50.570Z,20.34
2023-05-19T06:23:53.572Z,20.07
2023-05-19T06:26:56.235Z,19.77
2023-05-19T06:30:01.199Z,19.48
2023-05-19T06:33:07.110Z,19.21
2023-05-19T06:36:10.237Z,19.33
2023-05-19T06:39:14.575Z,19.62
2023-05-19T06:42:16.903Z,19.80
2023-05-19T06:45:33.010Z,20.06
2023-05-19T06:48:37.814Z,20.20
2023-05-19T06:51:40.360Z,20.46
2023-05-19T06:54:42.937Z,20.99
2023-05-19T06:57:46.438Z,21.49
2023-05-19T07:00:49.734Z,21.50
2023-05-19T07:03:53.238Z,21.05
2023-05-19T07:06:56.648Z,20.89
2023-05-19T07:09:59.973Z,20.42
2023-05-19T07:13:04.487Z,20.30
2023-05-19T07:16:08.754Z,20.38
2023-05-19T07:19:11.322Z,20.85
2023-05-19T07:22:13.710Z,20.95
2023-05-19T07:25:16.187Z,21.92
2023-05-19T07:28:21.582Z,22.66
2023-05-19T07:31:24.151Z,23.54
2023-05-19T07:34:26.612Z,21.63
2023-05-19T07:37:28.994Z,23.25
2023-05-19T07:40:31.893Z,23.76
2023-05-19T07:43:34.406Z,23.85
2023-05-19T07:46:38.001Z,23.61
2023-05-19T07:49:40.548Z,22.51
2023-05-19T07:52:44.214Z,22.40
2023-05-19T07:55:47.078Z,22.68
2023-05-19T07:58:49.470Z,22.44
2023-05-19T08:01:52.179Z,22.10
2023-05-19T08:04:54.577Z,23.08
2023-05-19T08:07:57.466Z,24.21
2023-05-19T08:11:04.346Z,25.31
2023-05-19T08:14:06.661Z,25.46
2023-05-19T08:17:09.025Z,25.97
2023-05-19T08:20:14.439Z,26.16
2023-05-19T08:23:18.353Z,26.72
2023-05-19T08:26:21.663Z,26.67
2023-05-19T08:29:24.262Z,26.74
2023-05-19T08:32:26.780Z,25.55
2023-05-19T08:35:29.064Z,26.55
2023-05-19T08:38:31.528Z,27.64
2023-05-19T08:41:33.851Z,25.81
2023-05-19T08:44:37.932Z,23.12
2023-05-19T08:47:49.812Z,23.99
2023-05-19T08:51:03.576Z,26.07
2023-05-19T08:54:17.919Z,25.05
2023-05-19T08:57:23.094Z,24.46
2023-05-19T09:00:25.996Z,24.82
2023-05-19T09:03:30.352Z,25.65
2023-05-19T09:06:33.066Z,23.57
2023-05-19T09:09:36.775Z,26.09
2023-05-19T09:12:39.094Z,25.86
2023-05-19T09:15:42.975Z,26.51
2023-05-19T09:18:58.593Z,25.83
2023-05-19T09:22:05.159Z,26.37
2023-05-19T09:25:19.183Z,25.02
2023-05-19T09:28:33.345Z,25.10
2023-05-19T09:31:35.774Z,25.29
2023-05-19T09:34:41.795Z,26.95
2023-05-19T09:37:44.349Z,25.71
2023-05-19T09:40:49.826Z,24.80
2023-05-19T09:43:58.571Z,24.60
2023-05-19T09:47:01.220Z,25.29
2023-05-19T09:50:05.534Z,24.46
2023-05-19T09:53:08.163Z,24.12
2023-05-19T09:56:11.095Z,24.30
2023-05-19T09:59:16.518Z,23.47
2023-05-19T10:02:25.115Z,22.97
2023-05-19T10:05:30.469Z,22.98
2023-05-19T10:08:34.777Z,24.62
2023-05-19T10:11:41.314Z,26.80
2023-05-19T10:14:44.872Z,28.56
2023-05-19T10:17:47.209Z,28.07
2023-05-19T10:20:50.298Z,26.19
2023-05-19T10:23:52.778Z,25.39
2023-05-19T10:27:03.684Z,24.40
2023-05-19T10:30:15.637Z,24.30
2023-05-19T10:33:21.094Z,24.25
2023-05-19T10:36:38.014Z,23.74
2023-05-19T10:39:42.602Z,25.31
2023-05-19T10:43:20.861Z,27.51
2023-05-19T10:46:30.365Z,27.23
2023-05-19T10:49:36.632Z,28.03
2023-05-19T10:52:40.202Z,26.71
2023-05-19T10:56:07.696Z,25.10
2023-05-19T10:59:31.176Z,23.69
2023-05-19T11:02:37.373Z,25.29
2023-05-19T11:05:39.897Z,27.31
2023-05-19T11:08:42.317Z,28.42
2023-05-19T11:11:49.070Z,28.86
2023-05-19T11:14:55.331Z,28.27
2023-05-19T11:17:57.924Z,27.90
2023-05-19T11:21:02.666Z,26.19
2023-05-19T11:24:08.921Z,26.36
2023-05-19T11:27:31.719Z,24.57
2023-05-19T11:30:34.874Z,23.81
2023-05-19T11:33:37.980Z,24.35
2023-05-19T11:36:41.384Z,24.77
2023-05-19T11:39:45.817Z,24.62
2023-05-19T11:42:48.140Z,24.23
2023-05-19T11:45:51.111Z,24.08
2023-05-19T11:48:54.109Z,24.41
2023-05-19T11:51:57.485Z,24.83
2023-05-19T11:55:04.346Z,24.94
2023-05-19T11:58:09.996Z,25.09
2023-05-19T12:01:12.553Z,24.43
2023-05-19T12:04:14.882Z,24.54
2023-05-19T12:07:19.061Z,23.79
2023-05-19T12:10:26.613Z,23.17
2023-05-19T12:13:29.351Z,23.82
2023-05-19T12:16:35.764Z,23.25
2023-05-19T12:19:38.612Z,22.76
2023-05-19T12:22:41.042Z,22.36
2023-05-19T12:25:43.463Z,22.68
2023-05-19T12:28:46.134Z,22.75
2023-05-19T12:31:49.430Z,22.91
2023-05-19T12:34:53.066Z,22.50
2023-05-19T12:37:55.537Z,22.72
2023-05-19T12:41:00.904Z,23.23
2023-05-19T12:44:14.967Z,23.54
2023-05-19T12:47:19.127Z,23.87
2023-05-19T12:50:21.551Z,22.74
2023-05-19T12:53:27.232Z,23.54
2023-05-19T12:56:29.527Z,23.82
2023-05-19T12:59:54.882Z,23.62
2023-05-19T13:03:01.450Z,23.03
2023-05-19T13:06:04.078Z,23.20
2023-05-19T13:09:07.302Z,23.34
2023-05-19T13:12:09.716Z,22.96
2023-05-19T13:15:12.080Z,23.46
2023-05-19T13:18:21.996Z,23.50
2023-05-19T13:21:25.267Z,23.61
2023-05-19T13:24:27.801Z,23.60
2023-05-19T13:27:30.068Z,23.97
2023-05-19T13:30:38.016Z,23.97
2023-05-19T13:33:40.736Z,23.29
2023-05-19T13:36:48.138Z,23.86
2023-05-19T13:39:51.577Z,23.49
2023-05-19T13:42:53.863Z,23.13
2023-05-19T13:45:56.338Z,22.99
2023-05-19T13:48:58.716Z,23.28
2023-05-19T13:52:01.025Z,23.45
2023-05-19T13:55:03.713Z,23.61
2023-05-19T13:58:06.195Z,23.84
2023-05-19T14:01:09.440Z,23.80
2023-05-19T14:04:13.342Z,23.87
2023-05-19T14:07:16.758Z,23.74
2023-05-19T14:10:19.151Z,24.19
2023-05-19T14:13:31.989Z,23.98
2023-05-19T14:16:38.344Z,24.65
2023-05-19T14:19:40.908Z,24.64
2023-05-19T14:22:43.206Z,24.42
2023-05-19T14:25:45.790Z,24.47
2023-05-19T14:28:48.043Z,24.65
2023-05-19T14:31:50.597Z,24.73
2023-05-19T14:34:53.089Z,24.71
2023-05-19T14:37:55.454Z,24.20
2023-05-19T14:40:57.790Z,24.44
2023-05-19T14:44:00.187Z,24.55
2023-05-19T14:47:02.573Z,24.56
2023-05-19T14:50:05.723Z,24.64
2023-05-19T14:53:08.005Z,24.71
2023-05-19T14:56:10.270Z,24.57
2023-05-19T14:59:12.574Z,24.26
2023-05-19T15:02:14.810Z,24.34
2023-05-19T15:05:17.395Z,24.43
2023-05-19T15:08:19.815Z,24.60
2023-05-19T15:11:22.480Z,24.51
2023-05-19T15:14:24.791Z,24.37
2023-05-19T15:17:27.065Z,24.32
2023-05-19T15:20:29.685Z,24.43
2023-05-19T15:23:32.180Z,24.31
2023-05-19T15:26:34.474Z,24.09
2023-05-19T15:29:36.855Z,24.01
2023-05-19T15:32:39.165Z,23.83
2023-05-19T15:35:41.877Z,23.67
2023-05-19T15:38:44.268Z,23.45
2023-05-19T15:41:46.562Z,23.37
2023-05-19T15:44:48.966Z,23.44
2023-05-19T15:47:51.372Z,23.37
2023-05-19T15:50:53.660Z,23.16
2023-05-19T15:53:56.056Z,23.18
2023-05-19T15:56:58.407Z,23.08
2023-05-19T16:00:01.104Z,23.05
2023-05-19T16:03:03.435Z,23.08
2023-05-19T16:06:05.948Z,22.92
2023-05-19T16:09:08.221Z,22.85
2023-05-19T16:12:10.621Z,22.81
2023-05-19T16:15:12.963Z,22.59
2023-05-19T16:18:16.082Z,22.48
2023-05-19T16:21:18.512Z,22.32
2023-05-19T16:24:21.031Z,22.35
2023-05-19T16:27:23.346Z,22.39
2023-05-19T16:30:27.942Z,22.28
2023-05-19T16:33:30.454Z,22.16
2023-05-19T16:36:32.804Z,21.98
2023-05-19T16:39:38.120Z,21.80
2023-05-19T16:42:40.962Z,21.59
2023-05-19T16:45:43.280Z,21.33
2023-05-19T16:48:45.756Z,21.12
2023-05-19T16:51:48.943Z,21.00
2023-05-19T16:54:51.435Z,20.84
2023-05-19T16:57:53.960Z,20.74
2023-05-19T17:00:57.628Z,20.64
2023-05-19T17:04:00.004Z,20.49
2023-05-19T17:07:02.405Z,20.37
2023-05-19T17:10:05.207Z,20.33
2023-05-19T17:13:07.493Z,20.23
2023-05-19T17:16:09.745Z,20.16
2023-05-19T17:19:12.523Z,20.05
2023-05-19T17:22:14.863Z,19.94
2023-05-19T17:25:17.249Z,19.81
2023-05-19T17:28:19.551Z,19.71
2023-05-19T17:31:21.857Z,19.58
2023-05-19T17:34:24.243Z,19.44
2023-05-19T17:37:26.574Z,19.36
2023-05-19T17:40:28.931Z,19.22
2023-05-19T17:43:31.204Z,19.13
2023-05-19T17:46:35.797Z,19.06
2023-05-19T17:49:40.175Z,19.03
2023-05-19T17:52:42.945Z,18.95
2023-05-19T17:55:53.417Z,18.87
2023-05-19T17:58:56.057Z,18.84
2023-05-19T18:01:58.682Z,18.76
2023-05-19T18:05:01.841Z,18.60
2023-05-19T18:08:07.187Z,18.53
2023-05-19T18:11:13.421Z,18.31
2023-05-19T18:14:15.873Z,18.18
2023-05-19T18:17:18.207Z,18.00
2023-05-19T18:20:20.577Z,17.85
2023-05-19T18:23:22.855Z,17.72
2023-05-19T18:26:25.139Z,17.61
2023-05-19T18:29:30.286Z,17.59
2023-05-19T18:32:33.944Z,17.43
2023-05-19T18:35:37.179Z,17.31
2023-05-19T18:38:40.432Z,17.19
2023-05-19T18:41:42.818Z,17.08
2023-05-19T18:44:47.151Z,16.93
2023-05-19T18:47:49.431Z,16.90
2023-05-19T18:50:51.951Z,16.81
2023-05-19T18:53:54.283Z,16.74
2023-05-19T18:56:56.612Z,16.64
2023-05-19T18:59:58.880Z,16.57
2023-05-19T19:03:01.799Z,16.56
2023-05-19T19:06:04.238Z,16.45
2023-05-19T19:09:06.568Z,16.28
2023-05-19T19:12:09.040Z,16.17
2023-05-19T19:15:11.634Z,16.08
2023-05-19T19:18:14.067Z,15.98
2023-05-19T19:21:16.421Z,15.92
2023-05-19T19:24:18.665Z,15.81
2023-05-19T19:27:21.363Z,15.77
2023-05-19T19:30:26.865Z,15.74
2023-05-19T19:33:34.364Z,15.67
2023-05-19T19:36:36.841Z,15.63
2023-05-19T19:39:39.480Z,15.62
2023-05-19T19:42:41.842Z,15.62
2023-05-19T19:45:44.195Z,15.60
2023-05-19T19:48:46.472Z,15.53
2023-05-19T19:51:48.769Z,15.56
2023-05-19T19:54:51.492Z,15.53
2023-05-19T19:57:53.820Z,15.51
2023-05-19T20:01:00.614Z,15.33
2023-05-19T20:04:03.199Z,15.30
2023-05-19T20:07:05.846Z,15.32
2023-05-19T20:10:08.667Z,15.36
2023-05-19T20:13:11.115Z,15.33
2023-05-19T20:16:13.433Z,15.29
2023-05-19T20:19:15.871Z,15.32
2023-05-19T20:22:18.280Z,15.31
2023-05-19T20:25:20.911Z,15.33
2023-05-19T20:28:24.201Z,15.28
2023-05-19T20:31:26.697Z,15.32
2023-05-19T20:34:29.055Z,15.38
2023-05-19T20:37:31.462Z,15.29
2023-05-19T20:40:37.882Z,15.20
2023-05-19T20:43:40.196Z,15.11
2023-05-19T20:46:47.420Z,15.09
2023-05-19T20:49:49.765Z,15.06
2023-05-19T20:52:52.077Z,14.95
2023-05-19T20:55:54.409Z,14.97
2023-05-19T20:58:56.773Z,14.95
2023-05-19T21:01:59.139Z,15.08
2023-05-19T21:05:01.610Z,15.11
2023-05-19T21:08:04.122Z,15.14
2023-05-19T21:11:06.512Z,15.23
2023-05-19T21:14:09.195Z,15.22
2023-05-19T21:17:11.661Z,15.19
2023-05-19T21:20:14.218Z,15.19
2023-05-19T21:23:16.581Z,15.29
2023-05-19T21:26:18.974Z,15.35
2023-05-19T21:29:21.251Z,15.39
2023-05-19T21:32:23.617Z,15.27
2023-05-19T21:35:26.071Z,15.18
2023-05-19T21:38:28.445Z,15.05
2023-05-19T21:41:31.269Z,14.90
2023-05-19T21:44:33.704Z,14.89
2023-05-19T21:47:36.195Z,14.87
2023-05-19T21:50:38.875Z,14.91
2023-05-19T21:53:41.242Z,14.92
2023-05-19T21:56:43.608Z,14.97
2023-05-19T21:59:46.324Z,15.15
2023-05-19T22:02:48.749Z,15.16
2023-05-19T22:05:53.382Z,15.13
2023-05-19T22:08:55.787Z,15.17
2023-05-19T22:11:58.112Z,15.27
2023-05-19T22:15:00.882Z,15.33
2023-05-19T22:18:03.227Z,15.33
2023-05-19T22:21:05.769Z,15.14
2023-05-19T22:24:08.053Z,14.91
2023-05-19T22:27:10.387Z,14.73
2023-05-19T22:30:12.735Z,14.64
2023-05-19T22:33:15.147Z,14.59
2023-05-19T22:36:17.635Z,14.59
2023-05-19T22:39:19.890Z,14.72
2023-05-19T22:42:22.159Z,14.76
2023-05-19T22:45:24.458Z,14.68
2023-05-19T22:48:26.777Z,14.78
2023-05-19T22:51:29.097Z,14.75
2023-05-19T22:54:32.840Z,14.80
2023-05-19T22:57:35.618Z,14.78
2023-05-19T23:00:38.004Z,14.87
2023-05-19T23:03:40.459Z,14.84
2023-05-19T23:06:42.800Z,14.98
2023-05-19T23:09:45.114Z,14.89
2023-05-19T23:12:47.432Z,14.63
2023-05-19T23:15:49.715Z,14.48
2023-05-19T23:18:52.049Z,14.36
2023-05-19T23:21:54.391Z,14.32
2023-05-19T23:24:56.784Z,14.39
2023-05-19T23:27:59.112Z,14.36
2023-05-19T23:31:01.593Z,14.36
2023-05-19T23:34:03.947Z,14.28
2023-05-19T23:37:06.361Z,14.22
2023-05-19T23:40:10.692Z,14.28
2023-05-19T23:43:13.232Z,14.29
2023-05-19T23:46:15.669Z,14.23
2023-05-19T23:49:18.068Z,14.28
2023-05-19T23:52:20.525Z,14.22
2023-05-19T23:55:23.616Z,14.14
2023-05-19T23:58:26.041Z,13.97
